Time;durP1;ratioP1;P1;durP2;ratioP2;P2;SDS_P1;SDS_P2;PMS_P1;PMS_P2;Temp;Humidity;BMP_temperature;BMP_pressure;BME280_temperature;BME280_humidity;BME280_pressure;Samples;Min_cycle;Max_cycle;Signal;HPM_P1;HPM_P2
2024/04/05 00:04:56;;;;;;;1.70;0.80;;;;;;;11.01;83.14;98519.49;226875;1273;22550;-81
2024/04/05 00:09:58;;;;;;;3.00;0.80;;;;;;;10.91;83.07;98522.42;226668;1256;22567;-81
2024/04/05 00:15:01;;;;;;;0.80;0.60;;;;;;;10.80;83.43;98529.09;226724;1270;22599;-81
2024/04/05 00:20:03;;;;;;;1.50;0.70;;;;;;;10.71;83.45;98537.23;226749;1274;22565;-81
2024/04/05 00:25:06;;;;;;;0.90;0.70;;;;;;;10.61;83.38;98530.91;226828;1273;22689;-81
2024/04/05 00:30:08;;;;;;;1.30;0.90;;;;;;;10.50;83.52;98539.67;226820;1273;25407;-81
2024/04/05 00:35:10;;;;;;;1.00;0.70;;;;;;;10.41;83.66;98548.71;226671;1273;22559;-81
2024/04/05 00:40:12;;;;;;;1.20;0.60;;;;;;;10.37;83.80;98553.77;226721;1272;22538;-81
2024/04/05 00:45:14;;;;;;;1.80;0.80;;;;;;;10.39;83.82;98559.59;226852;1273;22550;-82
2024/04/05 00:50:17;;;;;;;1.10;0.70;;;;;;;10.40;83.94;98560.48;226743;1272;23103;-82
2024/04/05 00:55:19;;;;;;;1.20;0.80;;;;;;;10.41;83.97;98573.45;226853;1270;22650;-82
2024/04/05 01:00:23;;;;;;;1.00;0.80;;;;;;;10.39;84.03;98578.13;226811;1273;22163;-81
2024/04/05 01:05:25;;;;;;;1.60;1.00;;;;;;;10.35;84.05;98581.09;226857;1269;22543;-81
2024/04/05 01:10:27;;;;;;;3.00;0.80;;;;;;;10.27;83.98;98586.79;226822;1272;22549;-81
2024/04/05 01:15:29;;;;;;;0.80;0.70;;;;;;;10.15;83.99;98598.45;226464;1272;319886;-81
2024/04/05 01:20:32;;;;;;;2.30;1.00;;;;;;;10.04;84.36;98602.58;226723;1272;24221;-81
2024/04/05 01:25:35;;;;;;;1.50;0.90;;;;;;;9.95;84.24;98599.35;226863;1273;22564;-81
2024/04/05 01:30:37;;;;;;;2.10;1.00;;;;;;;9.85;84.54;98598.23;226666;1274;22539;-80
2024/04/05 01:35:39;;;;;;;2.20;1.20;;;;;;;9.73;84.21;98597.46;226872;1272;22532;-82
2024/04/05 01:40:41;;;;;;;2.40;1.40;;;;;;;9.59;84.45;98603.73;226828;1274;22542;-82
2024/04/05 01:45:43;;;;;;;1.70;1.20;;;;;;;9.46;84.54;98610.23;226700;1273;22546;-82
2024/04/05 01:50:45;;;;;;;2.90;1.90;;;;;;;9.33;84.72;98616.77;226717;1270;22639;-82
2024/04/05 01:55:47;;;;;;;2.20;1.30;;;;;;;9.22;84.86;98632.15;226806;1274;22603;-82
2024/04/05 02:00:49;;;;;;;2.50;1.50;;;;;;;9.13;84.94;98640.39;226885;1273;22542;-82
2024/04/05 02:05:51;;;;;;;1.70;1.20;;;;;;;9.05;85.06;98637.48;226879;1273;22562;-80
2024/04/05 02:10:53;;;;;;;2.60;1.40;;;;;;;8.98;85.07;98647.31;226739;1273;22535;-81
2024/04/05 02:15:54;;;;;;;1.60;1.20;;;;;;;8.91;85.24;98649.39;226916;1272;22542;-81
2024/04/05 02:20:57;;;;;;;1.90;1.30;;;;;;;8.83;85.20;98659.62;226810;1274;22550;-81
2024/04/05 02:25:59;;;;;;;3.10;1.20;;;;;;;8.75;85.28;98667.27;226676;1273;22653;-81
2024/04/05 02:31:07;;;;;;;2.20;1.30;;;;;;;8.67;85.21;98675.58;226789;1274;22943;-81
2024/04/05 02:36:09;;;;;;;2.10;1.50;;;;;;;8.59;85.16;98679.70;226847;1273;22536;-79
2024/04/05 02:41:12;;;;;;;1.90;1.20;;;;;;;8.52;85.17;98685.54;226717;1272;23358;-81
2024/04/05 02:46:13;;;;;;;2.50;1.30;;;;;;;8.46;85.49;98685.52;226813;1273;22554;-80
2024/04/05 02:51:15;;;;;;;1.60;1.00;;;;;;;8.43;85.56;98682.60;226890;1274;22530;-81
2024/04/05 02:56:17;;;;;;;1.50;1.10;;;;;;;8.41;85.65;98687.55;226802;1273;22535;-81
2024/04/05 03:01:20;;;;;;;1.50;1.00;;;;;;;8.42;85.82;98691.65;226807;1273;22524;-81
2024/04/05 03:06:22;;;;;;;3.70;1.30;;;;;;;8.42;85.78;98687.64;226884;1273;25244;-81
2024/04/05 03:11:24;;;;;;;2.40;1.30;;;;;;;8.37;85.65;98694.84;226736;1274;22574;-81
2024/04/05 03:16:26;;;;;;;3.10;1.70;;;;;;;8.31;85.64;98697.63;226817;1274;22582;-82
2024/04/05 03:21:27;;;;;;;4.40;3.70;;;;;;;8.26;85.85;98700.16;226727;1275;22563;-81
2024/04/05 03:26:30;;;;;;;13.50;11.80;;;;;;;8.21;85.66;98709.48;226602;1274;22570;-80
2024/04/05 03:31:32;;;;;;;21.40;19.20;;;;;;;8.16;86.02;98707.73;226855;1272;22578;-81
2024/04/05 03:36:34;;;;;;;13.60;12.10;;;;;;;8.11;85.60;98709.73;226686;1270;22535;-81
2024/04/05 03:41:36;;;;;;;4.90;4.20;;;;;;;8.07;85.66;98709.52;226813;1273;22539;-81
2024/04/05 03:46:38;;;;;;;2.50;1.90;;;;;;;8.03;86.01;98711.48;226840;1273;24318;-81
2024/04/05 03:51:40;;;;;;;1.20;1.10;;;;;;;7.99;85.81;98717.21;226663;1274;25250;-81
2024/04/05 03:56:42;;;;;;;2.60;1.10;;;;;;;7.99;85.93;98723.62;226693;1273;22569;-81
2024/04/05 04:01:44;;;;;;;1.80;1.10;;;;;;;8.01;86.12;98720.46;226734;1270;25435;-81
2024/04/05 04:06:46;;;;;;;1.60;0.90;;;;;;;8.03;85.73;98721.14;226691;1273;24304;-81
2024/04/05 04:11:48;;;;;;;2.00;0.90;;;;;;;8.03;85.80;98727.09;226724;1274;22473;-80
2024/04/05 04:16:50;;;;;;;2.50;1.00;;;;;;;8.03;85.61;98731.86;226715;1273;26459;-81
2024/04/05 04:21:52;;;;;;;2.90;1.00;;;;;;;8.04;85.71;98740.86;226760;1273;22562;-81
2024/04/05 04:26:54;;;;;;;2.20;0.90;;;;;;;8.05;85.69;98747.98;226879;1273;22540;-81
2024/04/05 04:31:56;;;;;;;2.10;1.00;;;;;;;8.09;85.44;98747.66;226903;1274;22559;-80
2024/04/05 04:36:58;;;;;;;2.80;1.00;;;;;;;8.15;85.66;98757.38;226786;1273;22534;-80
2024/04/05 04:42:00;;;;;;;4.70;1.20;;;;;;;8.20;85.47;98766.31;226639;1270;22590;-80
2024/04/05 04:47:02;;;;;;;8.80;1.80;;;;;;;8.23;85.56;98771.13;226755;1264;22543;-81
2024/04/05 04:52:05;;;;;;;2.60;0.90;;;;;;;8.25;85.43;98775.83;226741;1273;25279;-80
2024/04/05 04:57:08;;;;;;;1.60;0.90;;;;;;;8.28;85.12;98780.50;226684;1273;22589;-81
2024/04/05 05:02:10;;;;;;;2.70;1.50;;;;;;;8.30;85.08;98793.18;226706;1273;22546;-81
2024/04/05 05:07:12;;;;;;;9.10;1.80;;;;;;;8.37;85.50;98796.42;226754;1267;22550;-81
2024/04/05 05:12:15;;;;;;;3.70;1.30;;;;;;;8.51;85.61;98798.74;226898;1272;22538;-81
2024/04/05 05:17:17;;;;;;;2.60;1.40;;;;;;;8.64;85.06;98806.16;226775;1270;22584;-81
2024/04/05 05:22:18;;;;;;;2.70;1.20;;;;;;;8.82;85.47;98807.16;226770;1273;22592;-80
2024/04/05 05:27:20;;;;;;;5.50;1.30;;;;;;;9.03;85.39;98811.34;226844;1270;22678;-81
2024/04/05 05:32:22;;;;;;;9.60;1.30;;;;;;;9.31;85.05;98818.40;226853;1272;22597;-81
2024/04/05 05:37:24;;;;;;;1.60;0.90;;;;;;;9.67;84.90;98818.02;226857;1272;22484;-82
2024/04/05 05:42:27;;;;;;;5.90;1.60;;;;;;;9.97;84.46;98823.27;226947;1267;22582;-82
2024/04/05 05:47:29;;;;;;;4.00;1.00;;;;;;;10.20;83.65;98825.23;226934;1270;22528;-82
2024/04/05 05:52:31;;;;;;;2.10;1.30;;;;;;;10.37;83.10;98827.05;226809;1261;23017;-82
2024/04/05 05:57:33;;;;;;;2.50;1.20;;;;;;;10.55;82.74;98829.68;227023;1267;22555;-81
2024/04/05 06:02:38;;;;;;;1.20;0.80;;;;;;;10.74;82.24;98831.42;226911;1270;22647;-81
2024/04/05 06:07:40;;;;;;;6.00;2.80;;;;;;;10.97;82.02;98835.42;226739;1269;25240;-82
2024/04/05 06:12:42;;;;;;;3.50;0.90;;;;;;;11.21;81.56;98844.66;226925;1267;22690;-81
2024/04/05 06:17:47;;;;;;;2.00;1.30;;;;;;;11.47;81.47;98845.13;226377;1257;22897;-83
2024/04/05 06:22:50;;;;;;;3.60;1.30;;;;;;;11.74;80.61;98855.66;226410;1266;22540;-82
2024/04/05 06:27:54;;;;;;;2.10;0.70;;;;;;;12.05;80.64;98858.68;226295;1257;22566;-83
2024/04/05 06:32:56;;;;;;;1.90;0.90;;;;;;;12.36;80.14;98862.79;226484;1267;22545;-83
2024/04/05 06:37:58;;;;;;;2.30;1.00;;;;;;;12.63;79.18;98863.70;226451;1257;22630;-82
2024/04/05 06:43:00;;;;;;;3.20;1.20;;;;;;;12.82;78.72;98861.02;226465;1266;22646;-83
2024/04/05 06:48:02;;;;;;;3.30;0.80;;;;;;;12.90;77.86;98866.06;226408;1270;22595;-82
2024/04/05 06:53:04;;;;;;;2.40;1.40;;;;;;;12.88;77.45;98864.98;226322;1254;22578;-84
2024/04/05 06:58:05;;;;;;;1.80;0.90;;;;;;;12.80;76.97;98872.64;226420;1273;25401;-82
2024/04/05 07:03:08;;;;;;;2.00;1.10;;;;;;;12.71;77.32;98876.62;226536;1267;22642;-81
2024/04/05 07:08:09;;;;;;;2.10;1.00;;;;;;;12.64;77.27;98878.87;227183;1270;22562;-82
2024/04/05 07:13:12;;;;;;;3.10;1.10;;;;;;;12.61;77.28;98877.77;227137;1257;22997;-82
2024/04/05 07:18:15;;;;;;;1.70;1.10;;;;;;;12.65;77.02;98880.31;227201;1269;22532;-82
2024/04/05 07:23:17;;;;;;;3.00;0.90;;;;;;;12.71;76.78;98888.82;226966;1267;24679;-82
2024/04/05 07:28:20;;;;;;;2.00;1.00;;;;;;;12.82;76.80;98887.00;226629;1272;22541;-84
2024/04/05 07:33:22;;;;;;;3.60;0.70;;;;;;;13.00;76.80;98891.34;226659;1266;22539;-82
2024/04/05 07:38:26;;;;;;;4.00;1.10;;;;;;;13.16;75.63;98893.56;226876;1272;22716;-82
2024/04/05 07:43:28;;;;;;;3.60;1.10;;;;;;;13.31;75.46;98896.98;227051;1272;22535;-82
2024/04/05 07:48:30;;;;;;;2.40;0.80;;;;;;;13.54;75.85;98903.61;226892;1267;22520;-81
2024/04/05 07:53:32;;;;;;;4.20;1.20;;;;;;;13.78;75.12;98906.98;226882;1270;22546;-80
2024/04/05 07:58:34;;;;;;;2.70;0.80;;;;;;;13.84;74.53;98907.52;226935;1267;22538;-82
2024/04/05 08:03:36;;;;;;;3.50;0.90;;;;;;;13.89;74.32;98917.78;226787;1266;22550;-83
2024/04/05 08:08:39;;;;;;;2.10;1.10;;;;;;;13.92;73.72;98916.64;226850;1272;22557;-82
2024/04/05 08:13:41;;;;;;;2.00;1.20;;;;;;;13.97;73.81;98918.63;226975;1270;22542;-82
2024/04/05 08:18:43;;;;;;;3.00;1.10;;;;;;;14.08;73.50;98919.34;226999;1270;22639;-78
2024/04/05 08:23:45;;;;;;;2.30;0.80;;;;;;;14.30;73.61;98916.61;226940;1270;22665;-82
2024/04/05 08:28:49;;;;;;;1.70;0.70;;;;;;;14.61;73.43;98916.83;226990;1267;22593;-83
2024/04/05 08:33:51;;;;;;;3.90;1.00;;;;;;;14.81;73.00;98913.67;227045;1272;23087;-82
2024/04/05 08:38:55;;;;;;;1.60;0.70;;;;;;;15.00;71.94;98923.81;226844;1271;22860;-82
2024/04/05 08:44:01;;;;;;;2.30;1.10;;;;;;;15.30;71.54;98923.75;226803;1269;24683;-80
2024/04/05 08:49:05;;;;;;;3.00;0.90;;;;;;;15.67;71.50;98918.40;227017;1267;22571;-81
2024/04/05 08:54:07;;;;;;;5.80;1.10;;;;;;;16.08;70.61;98918.61;226926;1270;22524;-81
2024/04/05 08:59:09;;;;;;;3.90;2.20;;;;;;;16.43;69.89;98923.52;227032;1266;24215;-81
2024/04/05 09:04:13;;;;;;;1.40;0.70;;;;;;;16.57;69.00;98924.21;226971;1266;24317;-83
2024/04/05 09:09:29;;;;;;;2.40;0.90;;;;;;;16.49;67.68;98923.17;227023;1266;22548;-82
2024/04/05 09:14:30;;;;;;;2.30;0.80;;;;;;;16.46;67.45;98924.67;226962;1263;26235;-82
2024/04/05 09:19:32;;;;;;;2.40;0.90;;;;;;;16.49;66.36;98924.09;226864;1265;22546;-82
2024/04/05 09:24:35;;;;;;;1.20;0.90;;;;;;;16.64;66.36;98924.36;226870;1250;22535;-81
2024/04/05 09:29:37;;;;;;;1.90;0.60;;;;;;;16.68;65.35;98920.33;227024;1266;22556;-82
2024/04/05 09:34:40;;;;;;;2.80;0.90;;;;;;;16.71;65.86;98918.21;226881;1269;22547;-82
2024/04/05 09:39:46;;;;;;;1.50;0.80;;;;;;;16.67;65.27;98920.09;226838;1269;22559;-82
2024/04/05 09:44:50;;;;;;;2.30;0.80;;;;;;;16.80;64.98;98904.98;226615;1266;24274;-83
2024/04/05 09:49:53;;;;;;;1.90;0.60;;;;;;;17.06;64.77;98905.34;226561;1258;22535;-82
2024/04/05 09:55:03;;;;;;;2.50;0.70;;;;;;;17.26;64.20;98914.44;226537;1269;22764;-82
2024/04/05 10:00:15;;;;;;;3.10;0.70;;;;;;;17.39;64.06;98911.48;226897;1270;22598;-83
2024/04/05 10:05:24;;;;;;;2.40;0.70;;;;;;;17.34;64.11;98914.27;226926;1263;22577;-83
2024/04/05 10:10:28;;;;;;;;;;;;;;;17.56;64.13;98917.55;226647;1269;22577;-85
2024/04/05 10:15:31;;;;;;;1.40;0.70;;;;;;;17.56;63.46;98917.92;226905;1272;22535;-86
2024/04/05 10:20:34;;;;;;;2.10;0.90;;;;;;;17.59;63.29;98912.39;226964;1272;22945;-86
2024/04/05 10:25:37;;;;;;;3.30;0.70;;;;;;;17.58;62.16;98909.96;227011;1272;22547;-85
2024/04/05 10:30:40;;;;;;;3.40;1.10;;;;;;;17.54;62.23;98909.67;226936;1270;22740;-84
2024/04/05 10:35:42;;;;;;;3.30;0.90;;;;;;;17.76;62.40;98902.98;226970;1272;22567;-85
2024/04/05 10:40:44;;;;;;;1.20;0.60;;;;;;;18.18;61.88;98898.55;226899;1273;22920;-85
2024/04/05 10:45:52;;;;;;;4.50;1.10;;;;;;;18.58;61.27;98899.65;226807;1273;22555;-86
2024/04/05 10:50:56;;;;;;;2.20;0.80;;;;;;;18.74;59.31;98904.94;227670;1270;22571;-85
2024/04/05 10:56:03;;;;;;;2.20;0.80;;;;;;;18.89;59.17;98900.73;227054;1250;22539;-85
2024/04/05 11:01:05;;;;;;;53.90;40.10;;;;;;;18.95;58.22;98912.33;226871;1267;22597;-84
2024/04/05 11:06:08;;;;;;;1.90;0.60;;;;;;;18.84;57.99;98903.75;226849;1266;22546;-83
2024/04/05 11:11:20;;;;;;;1.30;0.70;;;;;;;18.70;57.98;98906.63;227177;1256;22528;-84
2024/04/05 11:16:27;;;;;;;3.50;1.00;;;;;;;18.53;57.78;98913.06;226737;1266;22893;-84
2024/04/05 11:21:30;;;;;;;1.90;0.60;;;;;;;18.48;57.85;98918.69;226634;1269;22570;-85
2024/04/05 11:26:33;;;;;;;1.30;0.50;;;;;;;18.49;57.29;98916.52;226873;1266;23368;-84
2024/04/05 11:31:35;;;;;;;2.90;1.00;;;;;;;18.58;57.27;98915.66;227015;1266;22566;-87
2024/04/05 11:36:37;;;;;;;2.40;0.80;;;;;;;18.83;56.31;98926.82;226708;1273;22541;-86
2024/04/05 11:41:40;;;;;;;4.30;0.90;;;;;;;18.98;55.76;98928.08;226664;1266;25962;-85
2024/04/05 11:46:42;;;;;;;2.90;1.00;;;;;;;19.17;55.24;98922.92;226916;1272;24194;-85
2024/04/05 11:51:44;;;;;;;4.10;1.00;;;;;;;19.24;54.38;98926.97;226918;1273;22526;-87
2024/04/05 11:56:46;;;;;;;3.40;1.00;;;;;;;19.13;54.58;98926.00;226985;1270;22564;-86
2024/04/05 12:01:48;;;;;;;4.40;1.00;;;;;;;19.09;54.60;98918.98;226905;1272;22531;-86
2024/04/05 12:06:51;;;;;;;1.80;0.80;;;;;;;19.07;54.50;98909.39;227042;1269;24653;-87
2024/04/05 12:11:53;;;;;;;1.60;0.70;;;;;;;18.88;53.06;98912.35;226914;1272;22570;-87
2024/04/05 12:16:56;;;;;;;3.20;1.30;;;;;;;18.84;54.14;98910.60;227077;1268;22547;-85
2024/04/05 12:21:59;;;;;;;3.60;1.20;;;;;;;19.05;54.49;98907.41;226889;1269;22546;-85
2024/04/05 12:27:02;;;;;;;3.20;0.90;;;;;;;19.27;54.04;98908.84;226969;1272;22552;-87
2024/04/05 12:32:18;;;;;;;2.50;0.80;;;;;;;19.43;53.98;98912.56;226862;1272;22460;-86
2024/04/05 12:37:22;;;;;;;3.30;0.90;;;;;;;19.50;53.65;98905.61;226929;1270;22554;-83
2024/04/05 12:42:24;;;;;;;3.80;1.00;;;;;;;19.35;53.74;98901.16;226892;1272;24199;-82
2024/04/05 12:47:26;;;;;;;3.00;0.90;;;;;;;19.18;53.69;98899.35;227103;1269;22560;-82
2024/04/05 12:52:29;;;;;;;2.60;1.00;;;;;;;19.25;54.11;98895.51;226922;1267;22562;-83
2024/04/05 12:57:31;;;;;;;1.20;0.70;;;;;;;19.46;54.24;98890.48;226818;1270;23494;-85
2024/04/05 13:02:33;;;;;;;4.50;1.20;;;;;;;19.76;54.41;98884.45;226787;1269;22531;-83
2024/04/05 13:07:35;;;;;;;3.10;0.80;;;;;;;19.94;54.18;98884.93;226968;1272;24248;-83
2024/04/05 13:12:37;;;;;;;2.60;1.40;;;;;;;20.00;54.01;98880.30;226995;1266;22531;-83
2024/04/05 13:17:42;;;;;;;5.70;3.10;;;;;;;19.93;53.86;98880.20;226709;1256;347528;-81
2024/04/05 13:22:44;;;;;;;5.30;1.20;;;;;;;19.78;53.25;98871.83;226685;1251;22628;-81
2024/04/05 13:27:47;;;;;;;4.40;1.70;;;;;;;19.54;53.74;98858.36;226977;1260;22597;-82
2024/04/05 13:32:49;;;;;;;3.80;1.20;;;;;;;19.52;54.14;98846.05;226689;1263;23023;-80
2024/04/05 13:37:51;;;;;;;3.30;1.20;;;;;;;19.55;54.22;98839.58;226768;1259;22544;-81
2024/04/05 13:42:54;;;;;;;3.70;1.10;;;;;;;19.47;53.80;98831.70;226805;1269;22667;-81
2024/04/05 13:47:55;;;;;;;2.90;1.00;;;;;;;19.48;54.37;98830.08;226563;1266;22646;-82
2024/04/05 13:52:59;;;;;;;4.50;1.50;;;;;;;19.49;54.05;98830.20;226580;1257;22546;-82
2024/04/05 13:58:01;;;;;;;3.80;1.40;;;;;;;19.50;54.20;98816.31;226624;1265;22746;-82
2024/04/05 14:03:03;;;;;;;3.80;1.30;;;;;;;19.49;54.48;98824.29;226774;1267;22537;-82
2024/04/05 14:08:05;;;;;;;3.30;1.10;;;;;;;19.37;54.04;98829.59;226637;1270;22551;-82
2024/04/05 14:13:08;;;;;;;4.00;1.20;;;;;;;19.25;54.03;98824.09;226769;1260;22710;-81
2024/04/05 14:18:10;;;;;;;4.20;1.10;;;;;;;19.31;54.35;98826.17;227052;1266;22534;-81
2024/04/05 14:23:11;;;;;;;3.50;1.20;;;;;;;19.48;54.57;98817.63;227355;1267;22509;-81
2024/04/05 14:28:13;;;;;;;4.20;1.40;;;;;;;19.52;53.38;98820.80;227287;1272;22575;-81
2024/04/05 14:33:15;;;;;;;3.10;1.20;;;;;;;19.28;53.27;98826.50;227077;1269;22602;-82
2024/04/05 14:38:17;;;;;;;3.30;1.20;;;;;;;19.04;53.85;98827.17;227202;1271;22525;-83
2024/04/05 14:43:19;;;;;;;2.90;1.00;;;;;;;18.94;54.39;98814.79;227252;1266;22515;-83
2024/04/05 14:48:21;;;;;;;5.10;1.70;;;;;;;18.95;54.51;98809.45;227131;1272;25220;-83
2024/04/05 14:53:23;;;;;;;4.60;1.10;;;;;;;19.00;54.33;98796.73;227337;1268;23011;-81
2024/04/05 14:58:26;;;;;;;3.90;1.40;;;;;;;19.07;54.55;98793.68;227128;1269;22528;-81
2024/04/05 15:03:29;;;;;;;4.20;1.10;;;;;;;19.10;54.25;98791.77;227061;1272;22540;-81
2024/04/05 15:08:35;;;;;;;5.00;1.30;;;;;;;19.02;54.37;98787.50;227164;1267;22597;-83
2024/04/05 15:13:38;;;;;;;3.70;1.30;;;;;;;18.77;54.10;98785.28;227170;1267;22558;-82
2024/04/05 15:18:41;;;;;;;4.40;1.50;;;;;;;18.52;54.90;98781.96;227409;1270;22531;-82
2024/04/05 15:23:43;;;;;;;4.10;1.30;;;;;;;18.47;55.22;98781.96;227136;1272;22553;-83
2024/04/05 15:28:44;;;;;;;5.80;1.90;;;;;;;18.38;55.23;98778.23;227397;1269;22578;-82
2024/04/05 15:33:46;;;;;;;6.50;1.50;;;;;;;18.38;55.42;98779.61;227381;1270;22543;-81
2024/04/05 15:38:48;;;;;;;3.60;1.10;;;;;;;18.40;55.52;98776.92;227162;1266;22484;-81
2024/04/05 15:43:51;;;;;;;3.80;1.00;;;;;;;18.43;55.58;98770.92;227118;1269;22625;-82
2024/04/05 15:48:53;;;;;;;4.60;1.10;;;;;;;18.43;55.38;98764.25;227204;1272;22697;-82
2024/04/05 15:54:08;;;;;;;4.70;1.70;;;;;;;18.39;55.50;98766.96;227272;1270;25947;-81
2024/04/05 15:59:10;;;;;;;3.80;1.50;;;;;;;18.40;55.68;98765.41;227273;1249;22594;-82
2024/04/05 16:04:13;;;;;;;3.00;1.30;;;;;;;18.34;55.84;98766.48;227241;1272;22528;-82
2024/04/05 16:09:15;;;;;;;4.20;1.20;;;;;;;18.19;56.03;98757.42;227157;1270;22594;-82
2024/04/05 16:14:17;;;;;;;4.00;1.10;;;;;;;18.07;56.48;98760.29;226982;1272;22538;-82
2024/04/05 16:19:20;;;;;;;4.00;1.40;;;;;;;17.98;56.80;98758.27;227179;1272;22539;-81
2024/04/05 16:24:23;;;;;;;3.50;1.20;;;;;;;17.88;57.44;98756.46;227104;1270;22583;-81
2024/04/05 16:29:26;;;;;;;6.10;1.70;;;;;;;17.74;57.78;98752.05;227155;1270;23073;-81
2024/04/05 16:34:30;;;;;;;4.30;1.60;;;;;;;17.54;57.75;98739.56;227332;1272;25407;-81
2024/04/05 16:39:32;;;;;;;3.90;1.40;;;;;;;17.32;58.12;98742.74;227159;1269;22534;-82
2024/04/05 16:44:34;;;;;;;4.70;1.40;;;;;;;17.13;58.45;98740.01;227102;1270;22544;-81
2024/04/05 16:49:38;;;;;;;3.90;1.40;;;;;;;16.96;58.88;98735.55;227125;1272;23264;-83
2024/04/05 16:54:44;;;;;;;4.40;1.50;;;;;;;16.81;59.12;98736.25;227161;1269;22541;-82
2024/04/05 16:59:46;;;;;;;5.80;1.40;;;;;;;16.66;59.59;98735.20;227159;1269;22604;-82
2024/04/05 17:04:50;;;;;;;4.70;1.90;;;;;;;16.49;59.92;98741.00;227436;1272;24242;-82
2024/04/05 17:09:53;;;;;;;2.80;1.50;;;;;;;16.32;60.25;98745.55;227267;1271;22522;-82
2024/04/05 17:14:56;;;;;;;4.30;1.80;;;;;;;16.14;60.78;98758.23;227144;1271;22529;-82
2024/04/05 17:19:58;;;;;;;4.90;2.40;;;;;;;15.99;61.07;98763.56;227414;1269;24215;-82
2024/04/05 17:25:00;;;;;;;8.20;5.50;;;;;;;15.84;61.40;98753.16;227435;1272;24235;-82
2024/04/05 17:30:02;;;;;;;5.30;2.20;;;;;;;15.67;61.72;98754.80;227206;1269;22592;-82
2024/04/05 17:35:04;;;;;;;4.40;1.90;;;;;;;15.49;62.25;98752.11;227160;1270;22646;-81
2024/04/05 17:40:06;;;;;;;5.30;1.80;;;;;;;15.33;62.50;98755.23;227291;1271;23227;-81
2024/04/05 17:45:08;;;;;;;9.30;2.70;;;;;;;15.20;62.96;98752.41;227410;1270;22721;-82
2024/04/05 17:50:10;;;;;;;6.00;2.50;;;;;;;15.09;63.43;98759.18;227137;1269;22524;-81
2024/04/05 17:55:12;;;;;;;6.90;2.60;;;;;;;15.03;63.89;98770.44;227174;1270;22722;-81
2024/04/05 18:00:14;;;;;;;7.90;2.20;;;;;;;15.00;64.24;98773.20;227175;1270;22532;-81
2024/04/05 18:05:20;;;;;;;4.20;2.10;;;;;;;14.97;64.33;98772.43;227288;1272;22539;-82
2024/04/05 18:10:21;;;;;;;6.90;2.60;;;;;;;14.93;64.67;98768.60;227197;1272;25415;-82
2024/04/05 18:15:23;;;;;;;6.50;2.60;;;;;;;14.95;64.94;98768.14;227328;1269;22688;-81
2024/04/05 18:20:27;;;;;;;5.70;3.00;;;;;;;14.97;65.12;98763.39;227363;1270;25455;-81
2024/04/05 18:25:33;;;;;;;5.90;3.00;;;;;;;14.97;65.45;98748.64;227174;1272;22594;-81
2024/04/05 18:30:37;;;;;;;7.50;3.20;;;;;;;14.94;65.50;98746.16;227170;1272;22629;-82
2024/04/05 18:35:39;;;;;;;6.10;3.30;;;;;;;14.93;65.86;98748.14;227424;1269;22545;-81
2024/04/05 18:40:41;;;;;;;5.80;3.40;;;;;;;14.94;65.93;98740.55;227409;1270;22535;-82
2024/04/05 18:45:43;;;;;;;11.10;3.80;;;;;;;14.95;66.25;98739.77;227159;1270;22642;-82
2024/04/05 18:50:48;;;;;;;6.30;3.40;;;;;;;14.95;66.33;98743.75;227355;1270;22547;-81
2024/04/05 18:55:51;;;;;;;8.40;3.40;;;;;;;14.94;66.36;98757.38;227183;1270;22531;-82
2024/04/05 19:00:55;;;;;;;9.00;3.50;;;;;;;14.93;66.34;98760.33;227157;1270;22635;-81
2024/04/05 19:05:58;;;;;;;8.40;4.10;;;;;;;14.90;66.48;98760.06;227211;1272;22532;-82
2024/04/05 19:11:00;;;;;;;6.70;2.90;;;;;;;14.85;66.70;98756.54;227087;1270;22532;-81
2024/04/05 19:16:09;;;;;;;10.80;4.00;;;;;;;14.75;66.87;98751.83;227130;1272;22633;-82
2024/04/05 19:21:11;;;;;;;7.80;4.30;;;;;;;14.65;67.06;98745.31;227114;1270;22543;-81
2024/04/05 19:26:14;;;;;;;10.50;4.70;;;;;;;14.54;67.22;98735.52;227106;1272;24309;-82
2024/04/05 19:31:16;;;;;;;9.80;4.90;;;;;;;14.44;67.37;98742.73;227224;1269;25394;-82
2024/04/05 19:36:20;;;;;;;10.80;5.40;;;;;;;14.36;67.53;98749.51;227338;1272;22748;-82
2024/04/05 19:41:22;;;;;;;10.60;5.70;;;;;;;14.31;67.73;98736.11;227211;1272;22555;-81
2024/04/05 19:46:28;;;;;;;11.20;5.30;;;;;;;14.25;68.09;98725.35;227378;1264;22630;-82
2024/04/05 19:51:29;;;;;;;9.50;5.10;;;;;;;14.20;67.92;98708.86;227121;1272;22531;-81
2024/04/05 19:56:31;;;;;;;11.00;5.80;;;;;;;14.16;67.93;98710.48;227450;1269;22629;-82
2024/04/05 20:01:35;;;;;;;9.20;5.20;;;;;;;14.12;68.43;98701.61;227143;1272;22528;-82
2024/04/05 20:06:37;;;;;;;13.60;6.10;;;;;;;14.09;68.18;98700.55;227268;1272;23420;-82
2024/04/05 20:11:42;;;;;;;12.90;6.90;;;;;;;14.06;68.33;98696.52;227174;1270;22542;-81
2024/04/05 20:16:44;;;;;;;15.80;7.30;;;;;;;14.03;68.48;98688.14;227171;1272;22583;-82
2024/04/05 20:21:46;;;;;;;13.90;7.30;;;;;;;14.02;68.76;98699.31;227370;1270;22550;-81
2024/04/05 20:26:49;;;;;;;12.20;6.20;;;;;;;14.01;68.63;98714.55;227146;1263;22544;-81
2024/04/05 20:37:11;;;;;;;11.20;6.00;;;;;;;14.01;68.84;98705.86;227313;1270;25205;-82
2024/04/05 20:42:13;;;;;;;10.40;5.50;;;;;;;14.02;69.03;98706.42;227221;1272;25319;-81
2024/04/05 20:47:16;;;;;;;12.10;6.50;;;;;;;14.04;68.97;98711.48;227238;1272;25584;-81
2024/04/05 20:52:18;;;;;;;9.80;5.20;;;;;;;14.06;69.06;98696.56;227068;1270;22543;-82
2024/04/05 20:57:20;;;;;;;8.50;4.30;;;;;;;14.06;69.16;98689.69;227201;1272;22545;-82
2024/04/05 21:02:23;;;;;;;9.10;4.30;;;;;;;14.04;69.00;98676.37;227047;1260;22545;-82
2024/04/05 21:07:29;;;;;;;7.00;4.10;;;;;;;14.02;69.07;98673.67;227091;1272;22549;-82
2024/04/05 21:12:31;;;;;;;7.70;3.80;;;;;;;14.00;69.17;98664.20;227069;1272;22556;-82
2024/04/05 21:17:32;;;;;;;7.30;4.10;;;;;;;13.97;69.54;98658.83;227190;1272;26100;-81
2024/04/05 21:22:34;;;;;;;8.10;4.10;;;;;;;13.92;69.35;98659.27;227197;1270;22539;-81
2024/04/05 21:27:37;;;;;;;8.30;5.00;;;;;;;13.89;69.63;98647.85;227200;1272;22560;-81
2024/04/05 21:32:40;;;;;;;8.70;4.00;;;;;;;13.88;69.78;98648.96;227312;1272;22642;-82
2024/04/05 21:37:42;;;;;;;7.70;4.20;;;;;;;13.85;69.59;98642.95;227166;1269;22543;-82
2024/04/05 21:42:44;;;;;;;8.80;4.40;;;;;;;13.83;70.17;98633.28;227386;1270;24318;-82
2024/04/05 21:47:46;;;;;;;9.60;4.60;;;;;;;13.82;70.11;98641.81;227072;1269;22602;-82
2024/04/05 21:52:48;;;;;;;7.60;5.00;;;;;;;13.83;70.42;98649.09;227201;1272;24330;-82
2024/04/05 21:57:50;;;;;;;7.40;4.10;;;;;;;13.84;70.44;98647.33;227363;1269;22543;-82
2024/04/05 22:02:54;;;;;;;11.00;4.60;;;;;;;13.85;70.24;98647.70;227025;1272;22534;-82
2024/04/05 22:07:56;;;;;;;8.80;4.50;;;;;;;13.84;70.56;98640.75;227137;1270;24198;-82
2024/04/05 22:12:57;;;;;;;9.30;4.30;;;;;;;13.83;70.65;98642.48;227059;1272;22584;-82
2024/04/05 22:17:59;;;;;;;7.50;4.20;;;;;;;13.82;70.54;98639.45;227071;1272;23497;-82
2024/04/05 22:23:01;;;;;;;8.70;4.30;;;;;;;13.81;70.68;98630.95;226951;1272;22539;-83
2024/04/05 22:28:03;;;;;;;9.00;4.20;;;;;;;13.80;70.77;98619.74;227147;1272;22546;-81
2024/04/05 22:33:05;;;;;;;7.70;4.20;;;;;;;13.78;71.01;98612.49;227271;1272;22557;-82
2024/04/05 22:38:07;;;;;;;6.60;3.90;;;;;;;13.73;71.01;98609.80;227250;1272;22542;-82
2024/04/05 22:43:09;;;;;;;7.30;3.70;;;;;;;13.69;71.03;98602.96;227389;1268;22974;-82
2024/04/05 22:48:12;;;;;;;7.70;3.80;;;;;;;13.67;71.41;98606.27;227254;1272;22539;-82
2024/04/05 22:53:14;;;;;;;7.20;3.70;;;;;;;13.66;71.48;98610.11;227089;1269;22597;-82
2024/04/05 22:58:15;;;;;;;6.20;3.80;;;;;;;13.67;71.37;98605.26;227254;1272;22539;-82
2024/04/05 23:03:17;;;;;;;6.70;4.00;;;;;;;13.67;71.47;98608.73;227275;1269;22578;-82
2024/04/05 23:08:22;;;;;;;6.80;3.60;;;;;;;13.67;71.59;98610.60;227377;1272;22546;-81
2024/04/05 23:13:24;;;;;;;6.40;3.50;;;;;;;13.66;72.01;98610.94;227255;1272;22533;-81
2024/04/05 23:18:26;;;;;;;9.20;4.50;;;;;;;13.65;71.72;98606.95;227164;1272;25444;-82
2024/04/05 23:23:28;;;;;;;7.50;3.80;;;;;;;13.63;72.13;98603.34;227372;1270;22572;-82
2024/04/05 23:28:30;;;;;;;6.40;3.50;;;;;;;13.62;72.21;98595.33;227333;1270;22547;-82
2024/04/05 23:33:32;;;;;;;6.50;3.60;;;;;;;13.62;72.22;98595.29;227189;1272;23273;-81
2024/04/05 23:38:34;;;;;;;5.50;3.00;;;;;;;13.65;72.75;98597.02;227104;1266;24216;-81